createdAt,value
2023-02-11T00:02:58.923Z,97.00
2023-02-11T00:08:00.898Z,75.50
2023-02-11T00:13:07.310Z,75.30
2023-02-11T00:18:09.166Z,83.20
2023-02-11T00:23:11.823Z,77.90
2023-02-11T00:28:13.667Z,73.40
2023-02-11T00:33:15.483Z,71.50
2023-02-11T00:38:19.221Z,68.20
2023-02-11T00:43:21.066Z,74.40
2023-02-11T00:48:27.370Z,70.70
2023-02-11T00:53:29.200Z,71.10
2023-02-11T00:58:31.381Z,67.30
2023-02-11T01:03:34.361Z,67.60
2023-02-11T01:08:36.738Z,71.20
2023-02-11T01:13:38.785Z,66.50
2023-02-11T01:18:42.767Z,70.80
2023-02-11T01:23:44.905Z,62.90
2023-02-11T01:28:47.178Z,65.80
2023-02-11T01:33:49.286Z,67.60
2023-02-11T01:38:51.153Z,67.10
2023-02-11T01:43:54.588Z,64.50
2023-02-11T01:49:06.115Z,56.40
2023-02-11T01:54:28.650Z,61.90
2023-02-11T01:59:38.431Z,58.40
2023-02-11T02:04:50.295Z,59.90
2023-02-11T02:10:01.826Z,55.60
2023-02-11T02:15:27.065Z,57.30
2023-02-11T02:20:38.339Z,58.10
2023-02-11T02:26:14.706Z,48.20
2023-02-11T02:31:41.861Z,47.30
2023-02-11T02:37:11.048Z,52.80
2023-02-11T02:42:14.263Z,52.90
2023-02-11T02:47:16.730Z,52.90
2023-02-11T02:52:31.257Z,50.20
2023-02-11T02:58:01.483Z,50.70
2023-02-11T03:08:39.100Z,46.90
2023-02-11T03:13:43.213Z,46.00
2023-02-11T03:18:50.365Z,50.80
2023-02-11T03:24:00.648Z,46.80
2023-02-11T03:29:17.498Z,46.30
2023-02-11T03:34:30.033Z,48.60
2023-02-11T03:39:51.508Z,53.40
2023-02-11T03:45:00.874Z,50.20
2023-02-11T03:50:06.296Z,50.30
2023-02-11T03:55:16.983Z,46.90
2023-02-11T04:00:19.117Z,47.80
2023-02-11T04:05:20.984Z,45.80
2023-02-11T04:10:24.968Z,44.30
2023-02-11T04:15:27.293Z,42.70
2023-02-11T04:20:30.540Z,44.30
2023-02-11T04:25:33.401Z,41.10
2023-02-11T04:30:35.520Z,44.70
2023-02-11T04:35:37.380Z,41.80
2023-02-11T04:40:40.811Z,46.20
2023-02-11T04:45:42.777Z,38.40
2023-02-11T04:50:44.677Z,40.60
2023-02-11T04:55:50.942Z,40.90
2023-02-11T05:00:53.259Z,36.10
2023-02-11T05:05:56.320Z,40.80
2023-02-11T05:10:58.719Z,34.80
2023-02-11T05:16:00.869Z,38.00
2023-02-11T05:21:07.103Z,39.50
2023-02-11T05:26:09.711Z,38.20
2023-02-11T05:31:14.543Z,40.80
2023-02-11T05:36:17.192Z,39.30
2023-02-11T05:41:19.704Z,36.80
2023-02-11T05:46:21.605Z,37.10
2023-02-11T05:51:25.375Z,35.90
2023-02-11T05:56:28.314Z,39.70
2023-02-11T06:01:30.154Z,37.50
2023-02-11T06:06:32.422Z,38.50
2023-02-11T06:11:34.236Z,34.20
2023-02-11T06:16:36.297Z,35.10
2023-02-11T06:21:44.158Z,39.10
2023-02-11T06:26:46.399Z,33.60
2023-02-11T06:31:48.270Z,35.90
2023-02-11T06:36:50.288Z,36.20
2023-02-11T06:41:52.738Z,38.90
2023-02-11T06:46:54.827Z,34.90
2023-02-11T06:51:56.827Z,33.20
2023-02-11T06:56:59.171Z,36.90
2023-02-11T07:02:01.119Z,36.00
2023-02-11T07:07:03.048Z,34.80
2023-02-11T07:12:05.037Z,34.20
2023-02-11T07:17:06.964Z,35.00
2023-02-11T07:22:08.786Z,36.30
2023-02-11T07:27:10.660Z,37.90
2023-02-11T07:32:14.719Z,37.50
2023-02-11T07:37:16.661Z,37.10
2023-02-11T07:42:18.906Z,38.20
2023-02-11T07:47:20.702Z,40.30
2023-02-11T07:52:22.609Z,36.90
2023-02-11T07:57:25.221Z,42.80
2023-02-11T08:02:27.708Z,38.50
2023-02-11T08:07:30.354Z,37.70
2023-02-11T08:12:41.911Z,36.70
2023-02-11T08:18:04.120Z,38.50
2023-02-11T08:23:08.814Z,39.80
2023-02-11T08:28:11.054Z,35.70
2023-02-11T08:33:14.116Z,37.90
2023-02-11T08:38:19.240Z,41.10
2023-02-11T08:43:23.389Z,39.00
2023-02-11T08:48:25.579Z,37.70
2023-02-11T08:53:27.660Z,35.90
2023-02-11T08:58:29.824Z,36.20
2023-02-11T09:03:32.581Z,39.40
2023-02-11T09:08:36.740Z,37.00
2023-02-11T09:13:42.252Z,36.40
2023-02-11T09:18:45.669Z,35.80
2023-02-11T09:23:48.831Z,35.30
2023-02-11T09:28:51.964Z,36.80
2023-02-11T09:34:01.000Z,36.90
2023-02-11T09:39:05.414Z,40.20
2023-02-11T09:44:18.102Z,32.70
2023-02-11T09:49:31.372Z,38.20
2023-02-11T09:54:54.597Z,37.10
2023-02-11T09:59:57.764Z,39.70
2023-02-11T10:05:42.320Z,37.30
2023-02-11T10:10:54.203Z,41.20
2023-02-11T10:16:11.796Z,40.50
2023-02-11T10:21:35.856Z,37.30
2023-02-11T10:26:40.828Z,40.60
2023-02-11T10:31:45.142Z,38.00
2023-02-11T10:36:50.762Z,36.80
2023-02-11T10:42:11.281Z,42.80
2023-02-11T10:47:22.742Z,36.60
2023-02-11T10:52:28.297Z,37.00
2023-02-11T10:57:44.648Z,35.60
2023-02-11T11:02:58.670Z,34.80
2023-02-11T11:08:04.507Z,34.20
2023-02-11T11:13:20.773Z,36.70
2023-02-11T11:18:27.011Z,35.80
2023-02-11T11:23:31.868Z,39.20
2023-02-11T11:28:51.514Z,34.20
2023-02-11T11:33:56.108Z,37.80
2023-02-11T11:39:01.651Z,39.40
2023-02-11T11:44:14.611Z,35.20
2023-02-11T11:49:28.829Z,38.00
2023-02-11T11:54:31.842Z,37.10
2023-02-11T11:59:33.900Z,35.80
2023-02-11T12:04:55.834Z,37.90
2023-02-11T12:10:27.021Z,39.20
2023-02-11T12:15:55.427Z,37.90
2023-02-11T12:21:07.069Z,35.20
2023-02-11T12:26:14.911Z,38.00
2023-02-11T12:31:37.400Z,39.50
2023-02-11T12:37:07.754Z,39.70
2023-02-11T12:42:43.624Z,42.40
2023-02-11T12:48:15.286Z,39.20
2023-02-11T12:53:41.292Z,39.70
2023-02-11T12:58:45.817Z,38.40
2023-02-11T13:04:00.995Z,38.70
2023-02-11T13:09:09.818Z,39.90
2023-02-11T13:14:37.372Z,38.30
2023-02-11T13:19:49.265Z,40.40
2023-02-11T13:25:06.629Z,40.70
2023-02-11T13:30:19.702Z,42.10
2023-02-11T13:35:32.416Z,38.80
2023-02-11T13:40:39.747Z,38.70
2023-02-11T13:45:50.359Z,44.60
2023-02-11T13:50:59.748Z,41.50
2023-02-11T13:56:12.670Z,36.30
2023-02-11T14:01:41.597Z,36.70
2023-02-11T14:07:48.876Z,36.60
2023-02-11T14:13:07.272Z,34.70
2023-02-11T14:18:48.889Z,37.40
2023-02-11T14:23:53.569Z,35.60
2023-02-11T14:29:18.107Z,36.80
2023-02-11T14:35:03.127Z,35.60
2023-02-11T14:40:30.707Z,41.90
2023-02-11T14:45:35.709Z,38.90
2023-02-11T14:50:52.231Z,36.80
2023-02-11T14:55:55.649Z,35.90
2023-02-11T15:01:22.651Z,38.70
2023-02-11T15:06:30.902Z,35.80
2023-02-11T15:11:41.012Z,37.10
2023-02-11T15:21:47.901Z,38.80
2023-02-11T15:27:01.710Z,40.20
2023-02-11T15:32:18.560Z,40.20
2023-02-11T15:37:29.947Z,42.40
2023-02-11T15:42:43.880Z,35.00
2023-02-11T15:47:56.625Z,35.70
2023-02-11T15:53:03.194Z,42.60
2023-02-11T15:58:05.543Z,37.60
2023-02-11T16:03:20.372Z,40.10
2023-02-11T16:08:26.654Z,40.40
2023-02-11T16:13:33.821Z,40.80
2023-02-11T16:19:03.419Z,41.70
2023-02-11T16:24:16.263Z,45.60
2023-02-11T16:29:24.437Z,42.00
2023-02-11T16:34:28.026Z,47.50
2023-02-11T16:39:30.784Z,49.00
2023-02-11T16:44:34.484Z,48.50
2023-02-11T16:49:40.657Z,53.80
2023-02-11T16:54:43.271Z,47.40
2023-02-11T16:59:46.329Z,52.40
2023-02-11T17:04:49.679Z,50.20
2023-02-11T17:09:52.523Z,48.90
2023-02-11T17:14:55.158Z,48.60
2023-02-11T17:19:57.557Z,52.90
2023-02-11T17:24:59.920Z,51.10
2023-02-11T17:30:05.482Z,53.30
2023-02-11T17:35:09.975Z,56.20
2023-02-11T17:40:12.537Z,57.60
2023-02-11T17:45:15.651Z,53.50
2023-02-11T17:50:18.118Z,56.20
2023-02-11T17:55:20.683Z,57.70
2023-02-11T18:00:23.331Z,54.40
2023-02-11T18:05:27.825Z,56.40
2023-02-11T18:10:30.051Z,53.10
2023-02-11T18:15:33.669Z,58.60
2023-02-11T18:20:36.861Z,58.50
2023-02-11T18:25:42.743Z,53.20
2023-02-11T18:30:45.422Z,58.40
2023-02-11T18:35:49.329Z,55.80
2023-02-11T18:40:52.468Z,54.80
2023-02-11T18:45:54.784Z,57.30
2023-02-11T18:50:57.344Z,55.10
2023-02-11T18:56:06.967Z,54.70
2023-02-11T19:01:12.075Z,53.10
2023-02-11T19:06:20.141Z,55.90
2023-02-11T19:11:42.776Z,55.40
2023-02-11T19:16:50.185Z,55.80
2023-02-11T19:21:52.524Z,54.40
2023-02-11T19:26:58.885Z,51.30
2023-02-11T19:32:03.853Z,54.90
2023-02-11T19:37:05.863Z,47.20
2023-02-11T19:42:08.386Z,45.10
2023-02-11T19:47:11.189Z,45.20
2023-02-11T19:52:14.137Z,48.40
2023-02-11T19:57:16.795Z,41.70
2023-02-11T20:02:19.299Z,39.50
2023-02-11T20:07:21.738Z,37.00
2023-02-11T20:12:24.539Z,36.80
2023-02-11T20:17:27.639Z,32.90
2023-02-11T20:22:29.746Z,30.60
2023-02-11T20:27:33.446Z,30.00
2023-02-11T20:32:38.552Z,32.80
2023-02-11T20:37:44.264Z,23.50
2023-02-11T20:42:46.283Z,24.70
2023-02-11T20:47:48.928Z,23.90
2023-02-11T20:52:52.050Z,27.30
2023-02-11T20:57:55.591Z,24.70
2023-02-11T21:02:58.408Z,22.40
2023-02-11T21:08:01.225Z,23.30
2023-02-11T21:13:03.661Z,22.90
2023-02-11T21:18:05.976Z,22.70
2023-02-11T21:23:08.682Z,21.10
2023-02-11T21:28:11.431Z,17.90
2023-02-11T21:33:13.564Z,21.00
2023-02-11T21:38:16.155Z,20.80
2023-02-11T21:43:18.432Z,20.10
2023-02-11T21:48:21.318Z,18.50
2023-02-11T21:53:23.756Z,18.90
2023-02-11T21:58:26.081Z,19.10
2023-02-11T22:03:29.585Z,20.60
2023-02-11T22:08:31.632Z,19.40
2023-02-11T22:13:42.174Z,22.20
2023-02-11T22:18:46.513Z,22.60
2023-02-11T22:23:50.465Z,23.40
2023-02-11T22:28:53.797Z,23.40
2023-02-11T22:33:56.454Z,24.50
2023-02-11T22:39:01.916Z,22.00
2023-02-11T22:44:04.794Z,27.00
2023-02-11T22:49:15.306Z,23.50
2023-02-11T22:54:19.140Z,22.50
2023-02-11T22:59:21.834Z,21.20
2023-02-11T23:04:23.910Z,23.20
2023-02-11T23:09:25.998Z,22.60
2023-02-11T23:14:28.371Z,22.70
2023-02-11T23:19:30.902Z,21.60
2023-02-11T23:24:33.253Z,20.50
2023-02-11T23:29:35.658Z,22.40
2023-02-11T23:34:37.824Z,21.10
2023-02-11T23:39:40.207Z,23.90
2023-02-11T23:44:42.207Z,21.30
2023-02-11T23:49:45.033Z,19.90
2023-02-11T23:54:50.407Z,18.60
2023-02-11T23:59:53.311Z,18.40
